createdAt,value
2017-09-09T00:01:41.336Z,16.90
2017-09-09T00:04:16.098Z,16.75
2017-09-09T00:06:51.196Z,16.80
2017-09-09T00:09:26.141Z,16.87
2017-09-09T00:12:01.492Z,17.03
2017-09-09T00:14:36.560Z,17.06
2017-09-09T00:17:11.152Z,17.09
2017-09-09T00:19:45.844Z,16.99
2017-09-09T00:22:20.669Z,16.86
2017-09-09T00:24:55.473Z,16.81
2017-09-09T00:27:30.199Z,16.80
2017-09-09T00:30:04.584Z,16.82
2017-09-09T00:32:39.507Z,16.89
2017-09-09T00:35:14.283Z,16.92
2017-09-09T00:37:49.036Z,16.86
2017-09-09T00:40:23.540Z,16.90
2017-09-09T00:42:57.928Z,16.85
2017-09-09T00:45:32.923Z,16.74
2017-09-09T00:48:07.620Z,16.86
2017-09-09T00:50:41.988Z,16.86
2017-09-09T00:53:16.468Z,16.78
2017-09-09T00:55:52.077Z,16.71
2017-09-09T00:58:26.597Z,16.54
2017-09-09T01:01:01.053Z,16.39
2017-09-09T01:03:36.160Z,16.32
2017-09-09T01:06:11.043Z,16.32
2017-09-09T01:08:45.675Z,16.16
2017-09-09T01:11:20.758Z,16.11
2017-09-09T01:13:55.518Z,16.01
2017-09-09T01:16:30.410Z,15.94
2017-09-09T01:19:05.667Z,15.88
2017-09-09T01:21:40.329Z,16.02
2017-09-09T01:24:14.876Z,16.01
2017-09-09T01:26:50.175Z,15.82
2017-09-09T01:29:24.527Z,15.64
2017-09-09T01:31:59.609Z,15.60
2017-09-09T01:34:34.912Z,15.66
2017-09-09T01:37:09.893Z,15.68
2017-09-09T01:39:44.472Z,15.63
2017-09-09T01:42:19.125Z,15.66
2017-09-09T01:44:53.381Z,15.69
2017-09-09T01:47:28.332Z,15.77
2017-09-09T01:50:03.045Z,15.74
2017-09-09T01:52:37.985Z,15.59
2017-09-09T01:55:12.745Z,15.78
2017-09-09T01:57:47.596Z,16.03
2017-09-09T02:00:22.326Z,16.08
2017-09-09T02:02:57.023Z,16.05
2017-09-09T02:05:31.751Z,16.09
2017-09-09T02:08:06.517Z,15.94
2017-09-09T02:10:41.240Z,15.92
2017-09-09T02:13:15.845Z,15.89
2017-09-09T02:15:50.878Z,15.86
2017-09-09T02:18:25.891Z,15.78
2017-09-09T02:21:00.902Z,15.64
2017-09-09T02:23:35.404Z,15.72
2017-09-09T02:26:10.140Z,15.81
2017-09-09T02:28:44.865Z,15.84
2017-09-09T02:31:20.557Z,15.94
2017-09-09T02:33:55.187Z,15.91
2017-09-09T02:36:29.937Z,16.02
2017-09-09T02:39:04.083Z,16.13
2017-09-09T02:41:39.152Z,16.24
2017-09-09T02:44:13.886Z,16.23
2017-09-09T02:46:48.789Z,16.15
2017-09-09T02:49:24.100Z,16.26
2017-09-09T02:51:59.714Z,16.15
2017-09-09T02:54:34.435Z,16.15
2017-09-09T02:57:09.195Z,16.09
2017-09-09T02:59:43.952Z,16.18
2017-09-09T03:02:18.652Z,16.23
2017-09-09T03:04:54.480Z,16.11
2017-09-09T03:07:29.522Z,16.16
2017-09-09T03:10:03.984Z,16.19
2017-09-09T03:12:38.752Z,16.17
2017-09-09T03:15:13.377Z,16.24
2017-09-09T03:17:48.173Z,16.22
2017-09-09T03:20:22.876Z,16.17
2017-09-09T03:22:57.760Z,16.12
2017-09-09T03:25:32.532Z,16.27
2017-09-09T03:28:07.469Z,16.31
2017-09-09T03:30:42.321Z,16.33
2017-09-09T03:33:17.271Z,16.45
2017-09-09T03:35:52.071Z,16.43
2017-09-09T03:38:27.921Z,16.50
2017-09-09T03:41:02.536Z,16.54
2017-09-09T03:43:37.179Z,16.52
2017-09-09T03:46:11.984Z,16.55
2017-09-09T03:48:46.587Z,16.60
2017-09-09T03:51:21.328Z,16.57
2017-09-09T03:53:56.200Z,16.56
2017-09-09T03:56:31.032Z,16.63
2017-09-09T03:59:06.901Z,16.72
2017-09-09T04:01:41.493Z,16.73
2017-09-09T04:04:16.208Z,16.66
2017-09-09T04:06:50.936Z,16.74
2017-09-09T04:09:25.509Z,16.66
2017-09-09T04:12:00.504Z,16.62
2017-09-09T04:14:35.252Z,16.60
2017-09-09T04:17:10.084Z,16.60
2017-09-09T04:19:45.779Z,16.55
2017-09-09T04:22:20.391Z,16.35
2017-09-09T04:24:55.097Z,16.45
2017-09-09T04:27:29.918Z,16.51
2017-09-09T04:30:04.583Z,16.54
2017-09-09T04:32:39.254Z,16.34
2017-09-09T04:35:14.023Z,16.04
2017-09-09T04:37:49.233Z,15.82
2017-09-09T04:40:24.885Z,15.67
2017-09-09T04:42:59.845Z,15.51
2017-09-09T04:45:35.755Z,15.46
2017-09-09T04:48:10.395Z,15.31
2017-09-09T04:50:45.196Z,15.23
2017-09-09T04:53:19.924Z,15.19
2017-09-09T04:55:54.560Z,15.23
2017-09-09T04:58:29.280Z,15.16
2017-09-09T05:01:04.889Z,15.11
2017-09-09T05:03:39.596Z,15.06
2017-09-09T05:06:14.324Z,15.02
2017-09-09T05:08:49.147Z,15.03
2017-09-09T05:11:24.737Z,15.06
2017-09-09T05:13:59.796Z,14.98
2017-09-09T05:16:34.527Z,14.96
2017-09-09T05:19:08.929Z,14.92
2017-09-09T05:21:43.557Z,14.92
2017-09-09T05:24:18.281Z,14.91
2017-09-09T05:26:53.031Z,14.98
2017-09-09T05:29:27.635Z,14.96
2017-09-09T05:32:02.661Z,14.96
2017-09-09T05:34:37.325Z,15.04
2017-09-09T05:37:12.129Z,15.09
2017-09-09T05:39:46.929Z,15.04
2017-09-09T05:42:22.004Z,15.09
2017-09-09T05:44:57.305Z,15.15
2017-09-09T05:47:32.512Z,15.16
2017-09-09T05:50:06.924Z,15.14
2017-09-09T05:52:41.827Z,15.16
2017-09-09T05:55:16.848Z,15.16
2017-09-09T05:57:52.005Z,15.08
2017-09-09T06:00:27.051Z,15.00
2017-09-09T06:03:02.006Z,14.97
2017-09-09T06:05:36.728Z,14.89
2017-09-09T06:08:11.767Z,14.91
2017-09-09T06:10:46.487Z,14.95
2017-09-09T06:13:21.251Z,15.04
2017-09-09T06:15:56.167Z,15.10
2017-09-09T06:18:30.670Z,15.04
2017-09-09T06:21:05.756Z,15.04
2017-09-09T06:23:40.540Z,15.06
2017-09-09T06:26:15.229Z,15.03
2017-09-09T06:28:50.064Z,15.05
2017-09-09T06:31:24.700Z,15.11
2017-09-09T06:33:59.656Z,15.13
2017-09-09T06:36:34.400Z,15.16
2017-09-09T06:39:09.328Z,15.21
2017-09-09T06:41:44.082Z,15.21
2017-09-09T06:44:18.903Z,15.19
2017-09-09T06:46:53.806Z,15.32
2017-09-09T06:49:28.736Z,15.26
2017-09-09T06:52:03.541Z,15.11
2017-09-09T06:54:38.273Z,15.15
2017-09-09T06:57:13.028Z,15.11
2017-09-09T06:59:48.132Z,15.08
2017-09-09T07:02:22.933Z,15.09
2017-09-09T07:04:57.737Z,15.08
2017-09-09T07:07:32.670Z,15.10
2017-09-09T07:10:07.702Z,15.09
2017-09-09T07:12:42.595Z,15.08
2017-09-09T07:15:17.437Z,15.05
2017-09-09T07:17:51.951Z,15.03
2017-09-09T07:20:26.600Z,14.98
2017-09-09T07:23:01.308Z,14.86
2017-09-09T07:25:37.181Z,14.88
2017-09-09T07:28:11.705Z,14.86
2017-09-09T07:30:46.744Z,14.93
2017-09-09T07:33:21.528Z,14.99
2017-09-09T07:35:57.116Z,14.89
2017-09-09T07:38:31.798Z,14.86
2017-09-09T07:41:06.457Z,14.90
2017-09-09T07:43:41.199Z,14.95
2017-09-09T07:46:15.948Z,14.92
2017-09-09T07:48:50.741Z,14.94
2017-09-09T07:51:25.465Z,14.96
2017-09-09T07:54:00.196Z,14.91
2017-09-09T07:56:34.822Z,14.90
2017-09-09T07:59:09.777Z,14.89
2017-09-09T08:01:44.280Z,14.94
2017-09-09T08:04:19.326Z,14.91
2017-09-09T08:06:54.884Z,14.85
2017-09-09T08:09:29.865Z,14.84
2017-09-09T08:12:04.735Z,14.85
2017-09-09T08:14:39.633Z,14.85
2017-09-09T08:17:14.395Z,14.95
2017-09-09T08:19:49.082Z,14.97
2017-09-09T08:22:23.805Z,14.94
2017-09-09T08:24:58.297Z,14.97
2017-09-09T08:27:33.798Z,15.03
2017-09-09T08:30:08.826Z,15.07
2017-09-09T08:32:43.350Z,15.08
2017-09-09T08:35:18.311Z,15.12
2017-09-09T08:37:52.952Z,15.16
2017-09-09T08:40:27.600Z,15.21
2017-09-09T08:43:04.635Z,15.23
2017-09-09T08:45:39.041Z,15.15
2017-09-09T08:51:23.658Z,15.16
2017-09-09T08:53:58.264Z,15.29
2017-09-09T08:56:33.057Z,15.18
2017-09-09T08:59:08.101Z,15.08
2017-09-09T09:01:43.296Z,15.06
2017-09-09T09:04:17.825Z,15.05
2017-09-09T09:06:52.733Z,15.14
2017-09-09T09:09:27.636Z,15.27
2017-09-09T09:12:02.464Z,15.36
2017-09-09T09:14:37.826Z,15.44
2017-09-09T09:17:12.620Z,15.51
2017-09-09T09:19:47.477Z,15.64
2017-09-09T09:22:22.090Z,15.66
2017-09-09T09:24:57.026Z,15.77
2017-09-09T09:27:31.436Z,15.90
2017-09-09T09:30:06.667Z,15.97
2017-09-09T09:32:41.808Z,16.00
2017-09-09T09:35:16.334Z,15.88
2017-09-09T09:37:51.020Z,16.05
2017-09-09T09:40:25.775Z,16.16
2017-09-09T09:43:00.640Z,16.13
2017-09-09T09:45:35.365Z,16.21
2017-09-09T09:48:10.119Z,16.51
2017-09-09T09:50:45.305Z,16.90
2017-09-09T09:53:20.246Z,17.40
2017-09-09T09:55:55.176Z,17.55
2017-09-09T09:58:29.981Z,17.60
2017-09-09T10:01:04.995Z,17.36
2017-09-09T10:03:39.880Z,17.44
2017-09-09T10:06:14.614Z,17.50
2017-09-09T10:08:49.364Z,17.52
2017-09-09T10:11:24.260Z,17.56
2017-09-09T10:13:59.096Z,17.48
2017-09-09T10:16:34.021Z,17.43
2017-09-09T10:19:08.869Z,17.26
2017-09-09T10:21:43.492Z,17.49
2017-09-09T10:24:19.037Z,17.33
2017-09-09T10:26:53.883Z,17.33
2017-09-09T10:29:28.612Z,17.56
2017-09-09T10:32:03.374Z,17.59
2017-09-09T10:34:38.183Z,17.70
2017-09-09T10:37:13.100Z,17.81
2017-09-09T10:39:47.935Z,17.83
2017-09-09T10:42:22.768Z,17.73
2017-09-09T10:44:57.677Z,17.72
2017-09-09T10:47:32.445Z,17.69
2017-09-09T10:50:07.197Z,17.45
2017-09-09T10:52:43.413Z,17.26
2017-09-09T10:55:18.033Z,16.98
2017-09-09T10:57:52.756Z,16.87
2017-09-09T11:00:27.563Z,16.84
2017-09-09T11:03:02.270Z,17.11
2017-09-09T11:05:37.381Z,17.47
2017-09-09T11:08:12.598Z,17.65
2017-09-09T11:10:47.248Z,17.42
2017-09-09T11:13:22.083Z,17.32
2017-09-09T11:15:56.977Z,17.26
2017-09-09T11:18:31.519Z,17.33
2017-09-09T11:21:06.330Z,17.16
2017-09-09T11:23:41.042Z,17.08
2017-09-09T11:26:15.753Z,17.11
2017-09-09T11:28:50.817Z,17.00
2017-09-09T11:31:25.669Z,17.21
2017-09-09T11:34:00.341Z,17.51
2017-09-09T11:36:34.864Z,17.66
2017-09-09T11:39:09.825Z,17.76
2017-09-09T11:41:44.783Z,17.84
2017-09-09T11:44:19.659Z,18.01
2017-09-09T11:46:54.449Z,18.17
2017-09-09T11:49:29.415Z,17.94
2017-09-09T11:52:04.319Z,17.87
2017-09-09T11:54:39.056Z,17.71
2017-09-09T11:57:13.438Z,17.69
2017-09-09T11:59:48.504Z,17.66
2017-09-09T12:02:23.401Z,18.04
2017-09-09T12:04:58.216Z,18.65
2017-09-09T12:07:33.035Z,19.03
2017-09-09T12:10:08.248Z,19.41
2017-09-09T12:12:42.797Z,19.70
2017-09-09T12:15:18.161Z,19.66
2017-09-09T12:17:53.093Z,19.76
2017-09-09T12:20:27.821Z,19.45
2017-09-09T12:23:02.582Z,19.13
2017-09-09T12:25:37.364Z,18.86
2017-09-09T12:28:12.385Z,18.44
2017-09-09T12:30:47.071Z,17.73
2017-09-09T12:33:21.856Z,17.50
2017-09-09T12:35:56.685Z,17.20
2017-09-09T12:38:31.641Z,17.13
2017-09-09T12:41:06.644Z,17.12
2017-09-09T12:43:41.570Z,17.12
2017-09-09T12:46:16.357Z,17.18
2017-09-09T12:48:51.277Z,17.37
2017-09-09T12:51:26.009Z,17.56
2017-09-09T12:54:00.704Z,17.56
2017-09-09T12:56:35.688Z,17.60
2017-09-09T12:59:10.639Z,17.63
2017-09-09T13:01:45.521Z,17.47
2017-09-09T13:04:20.276Z,17.34
2017-09-09T13:06:55.019Z,17.41
2017-09-09T13:09:29.729Z,17.58
2017-09-09T13:12:04.485Z,17.70
2017-09-09T13:14:39.212Z,18.26
2017-09-09T13:17:14.255Z,18.73
2017-09-09T13:19:49.286Z,18.88
2017-09-09T13:22:23.949Z,19.02
2017-09-09T13:24:58.752Z,19.28
2017-09-09T13:27:33.308Z,19.37
2017-09-09T13:30:08.449Z,19.28
2017-09-09T13:32:43.010Z,19.26
2017-09-09T13:35:17.771Z,19.07
2017-09-09T13:37:52.565Z,18.85
2017-09-09T13:40:27.202Z,18.74
2017-09-09T13:43:02.117Z,18.70
2017-09-09T13:45:36.904Z,18.77
2017-09-09T13:48:11.795Z,18.97
2017-09-09T13:50:46.532Z,19.26
2017-09-09T13:53:21.655Z,19.51
2017-09-09T13:55:56.440Z,19.65
2017-09-09T13:58:31.268Z,19.89
2017-09-09T14:01:06.020Z,20.17
2017-09-09T14:03:40.571Z,20.37
2017-09-09T14:06:15.864Z,20.62
2017-09-09T14:08:50.984Z,20.59
2017-09-09T14:11:25.841Z,20.65
2017-09-09T14:14:00.964Z,20.69
2017-09-09T14:16:35.785Z,20.42
2017-09-09T14:19:10.692Z,20.35
2017-09-09T14:21:45.776Z,20.59
2017-09-09T14:24:20.296Z,20.78
2017-09-09T14:26:55.143Z,20.98
2017-09-09T14:29:30.312Z,21.21
2017-09-09T14:32:05.260Z,21.21
2017-09-09T14:34:40.084Z,21.13
2017-09-09T14:37:15.237Z,21.01
2017-09-09T14:39:49.672Z,20.96
2017-09-09T14:42:24.673Z,20.85
2017-09-09T14:44:59.583Z,20.62
2017-09-09T14:47:34.273Z,20.61
2017-09-09T14:50:08.903Z,20.71
2017-09-09T14:52:43.630Z,20.55
2017-09-09T14:55:20.521Z,20.49
2017-09-09T14:57:55.120Z,20.55
2017-09-09T15:00:29.993Z,20.41
2017-09-09T15:03:04.588Z,20.43
2017-09-09T15:05:39.219Z,20.32
2017-09-09T15:08:14.058Z,20.24
2017-09-09T15:10:49.083Z,20.15
2017-09-09T15:13:23.686Z,20.12
2017-09-09T15:15:58.808Z,20.06
2017-09-09T15:18:33.942Z,20.01
2017-09-09T15:21:08.724Z,20.03
2017-09-09T15:23:43.559Z,20.12
2017-09-09T15:26:18.744Z,19.95
2017-09-09T15:28:53.444Z,19.83
2017-09-09T15:31:28.268Z,19.61
2017-09-09T15:34:03.272Z,19.45
2017-09-09T15:36:38.247Z,19.42
2017-09-09T15:39:12.968Z,19.17
2017-09-09T15:41:47.524Z,18.72
2017-09-09T15:44:22.311Z,18.49
2017-09-09T15:46:56.828Z,18.30
2017-09-09T15:49:31.652Z,18.24
2017-09-09T15:52:06.296Z,18.03
2017-09-09T15:54:41.201Z,17.82
2017-09-09T15:57:16.148Z,17.76
2017-09-09T15:59:51.131Z,17.71
2017-09-09T16:02:25.952Z,17.67
2017-09-09T16:05:00.639Z,17.75
2017-09-09T16:07:35.644Z,17.77
2017-09-09T16:10:10.671Z,17.85
2017-09-09T16:12:46.252Z,17.78
2017-09-09T16:15:21.130Z,17.81
2017-09-09T16:17:55.960Z,17.75
2017-09-09T16:20:30.793Z,17.71
2017-09-09T16:23:05.517Z,17.80
2017-09-09T16:25:40.344Z,17.68
2017-09-09T16:28:15.173Z,17.72
2017-09-09T16:30:49.987Z,17.45
2017-09-09T16:33:25.552Z,17.21
2017-09-09T16:36:00.295Z,17.21
2017-09-09T16:38:35.304Z,17.32
2017-09-09T16:41:10.164Z,17.20
2017-09-09T16:43:45.264Z,17.18
2017-09-09T16:46:20.173Z,17.24
2017-09-09T16:48:55.072Z,17.13
2017-09-09T16:51:30.300Z,17.13
2017-09-09T16:54:05.440Z,17.21
2017-09-09T16:56:40.385Z,17.28
2017-09-09T16:59:14.864Z,17.43
2017-09-09T17:01:50.078Z,17.47
2017-09-09T17:04:24.876Z,17.54
2017-09-09T17:06:59.882Z,17.59
2017-09-09T17:09:34.633Z,17.52
2017-09-09T17:12:09.905Z,17.34
2017-09-09T17:14:44.554Z,17.33
2017-09-09T17:17:19.205Z,17.38
2017-09-09T17:19:54.372Z,17.29
2017-09-09T17:22:29.277Z,17.23
2017-09-09T17:25:04.183Z,17.15
2017-09-09T17:27:38.899Z,17.18
2017-09-09T17:30:14.058Z,17.22
2017-09-09T17:32:49.028Z,17.19
2017-09-09T17:35:23.929Z,17.29
2017-09-09T17:37:58.448Z,17.40
2017-09-09T17:40:33.769Z,17.46
2017-09-09T17:43:08.576Z,17.52
2017-09-09T17:45:43.473Z,17.54
2017-09-09T17:48:18.581Z,17.51
2017-09-09T17:50:53.541Z,17.46
2017-09-09T17:53:28.232Z,17.47
2017-09-09T17:56:03.116Z,17.42
2017-09-09T17:58:38.021Z,17.38
2017-09-09T18:01:12.943Z,17.35
2017-09-09T18:03:47.669Z,17.28
2017-09-09T18:06:22.391Z,17.26
2017-09-09T18:08:57.031Z,17.26
2017-09-09T18:11:31.752Z,17.24
2017-09-09T18:14:06.808Z,16.98
2017-09-09T18:16:41.451Z,17.00
2017-09-09T18:19:16.648Z,16.99
2017-09-09T18:21:51.487Z,17.08
2017-09-09T18:24:26.233Z,17.06
2017-09-09T18:27:01.575Z,17.06
2017-09-09T18:29:36.567Z,17.05
2017-09-09T18:32:11.439Z,17.07
2017-09-09T18:34:46.428Z,17.02
2017-09-09T18:37:21.140Z,17.00
2017-09-09T18:39:55.838Z,16.85
2017-09-09T18:42:30.623Z,16.76
2017-09-09T18:45:05.445Z,16.67
2017-09-09T18:47:40.358Z,16.61
2017-09-09T18:50:15.264Z,16.57
2017-09-09T18:52:50.096Z,16.59
2017-09-09T18:55:24.844Z,16.59
2017-09-09T18:57:59.676Z,16.56
2017-09-09T19:00:34.367Z,16.50
2017-09-09T19:03:09.037Z,16.24
2017-09-09T19:05:44.113Z,15.87
2017-09-09T19:08:19.108Z,15.81
2017-09-09T19:10:53.826Z,15.71
2017-09-09T19:13:29.432Z,15.62
2017-09-09T19:16:04.305Z,15.62
2017-09-09T19:18:39.349Z,15.63
2017-09-09T19:21:14.557Z,15.52
2017-09-09T19:23:48.897Z,15.40
2017-09-09T19:26:23.743Z,15.37
2017-09-09T19:28:58.632Z,15.32
2017-09-09T19:31:33.664Z,15.40
2017-09-09T19:34:08.430Z,15.44
2017-09-09T19:36:43.255Z,15.36
2017-09-09T19:39:18.200Z,15.27
2017-09-09T19:41:53.032Z,15.41
2017-09-09T19:44:27.844Z,15.40
2017-09-09T19:47:02.668Z,15.37
2017-09-09T19:49:37.368Z,15.27
2017-09-09T19:52:12.113Z,15.40
2017-09-09T19:54:46.977Z,15.32
2017-09-09T19:57:21.805Z,15.43
2017-09-09T19:59:56.628Z,15.50
2017-09-09T20:02:31.438Z,15.52
2017-09-09T20:05:06.288Z,15.42
2017-09-09T20:07:41.240Z,15.52
2017-09-09T20:10:16.155Z,15.49
2017-09-09T20:12:50.989Z,15.56
2017-09-09T20:15:25.588Z,15.54
2017-09-09T20:18:00.475Z,15.48
2017-09-09T20:20:35.280Z,15.46
2017-09-09T20:23:09.804Z,15.38
2017-09-09T20:25:44.751Z,15.45
2017-09-09T20:28:19.568Z,15.49
2017-09-09T20:30:54.709Z,15.32
2017-09-09T20:33:29.523Z,15.18
2017-09-09T20:36:04.461Z,15.30
2017-09-09T20:38:39.365Z,15.27
2017-09-09T20:41:14.409Z,15.27
2017-09-09T20:43:49.592Z,15.24
2017-09-09T20:46:24.540Z,15.15
2017-09-09T20:48:59.421Z,15.11
2017-09-09T20:51:34.389Z,15.78
2017-09-09T20:54:08.949Z,16.28
2017-09-09T20:56:43.960Z,16.47
2017-09-09T20:59:18.859Z,16.72
2017-09-09T21:01:53.884Z,16.87
2017-09-09T21:04:28.305Z,17.09
2017-09-09T21:07:03.275Z,17.26
2017-09-09T21:09:38.395Z,17.23
2017-09-09T21:12:13.364Z,16.84
2017-09-09T21:14:48.507Z,17.00
2017-09-09T21:17:23.240Z,16.92
2017-09-09T21:19:58.188Z,17.05
2017-09-09T21:22:33.003Z,16.91
2017-09-09T21:25:07.905Z,16.77
2017-09-09T21:27:42.850Z,16.59
2017-09-09T21:30:17.536Z,16.50
2017-09-09T21:32:52.375Z,16.46
2017-09-09T21:35:27.123Z,16.10
2017-09-09T21:38:01.943Z,15.88
2017-09-09T21:40:36.895Z,15.74
2017-09-09T21:43:11.920Z,15.88
2017-09-09T21:45:46.998Z,16.03
2017-09-09T21:48:21.743Z,16.04
2017-09-09T21:50:56.731Z,16.08
2017-09-09T21:53:31.857Z,16.28
2017-09-09T21:56:06.812Z,16.44
2017-09-09T21:58:41.892Z,16.57
2017-09-09T22:01:17.006Z,16.71
2017-09-09T22:03:52.632Z,16.95
2017-09-09T22:06:27.115Z,16.95
2017-09-09T22:09:02.077Z,16.89
2017-09-09T22:11:36.734Z,16.89
2017-09-09T22:14:11.584Z,16.98
2017-09-09T22:16:46.335Z,17.02
2017-09-09T22:19:21.437Z,17.20
2017-09-09T22:21:56.219Z,17.42
2017-09-09T22:24:31.363Z,17.44
2017-09-09T22:27:06.284Z,17.48
2017-09-09T22:29:41.204Z,17.39
2017-09-09T22:32:16.067Z,17.41
2017-09-09T22:34:50.881Z,17.49
2017-09-09T22:37:27.160Z,17.53
2017-09-09T22:40:01.862Z,17.58
2017-09-09T22:42:36.706Z,17.70
2017-09-09T22:45:11.555Z,17.36
2017-09-09T22:47:46.785Z,16.89
2017-09-09T22:50:21.814Z,16.47
2017-09-09T22:52:56.983Z,16.16
2017-09-09T22:55:31.964Z,15.87
2017-09-09T22:58:07.076Z,15.61
2017-09-09T23:00:41.973Z,15.43
2017-09-09T23:03:16.429Z,15.21
2017-09-09T23:05:51.418Z,15.01
2017-09-09T23:08:26.441Z,14.94
2017-09-09T23:11:01.455Z,14.88
2017-09-09T23:13:36.732Z,14.85
2017-09-09T23:16:11.563Z,14.80
2017-09-09T23:18:46.524Z,14.73
2017-09-09T23:21:21.493Z,14.59
2017-09-09T23:23:56.508Z,14.47
2017-09-09T23:26:31.327Z,14.36
2017-09-09T23:29:06.336Z,14.33
2017-09-09T23:31:41.171Z,14.23
2017-09-09T23:34:16.100Z,14.16
2017-09-09T23:36:50.733Z,14.08
2017-09-09T23:39:25.744Z,14.01
2017-09-09T23:42:00.552Z,13.64
2017-09-09T23:44:35.884Z,13.44
2017-09-09T23:47:10.352Z,13.36
2017-09-09T23:49:45.487Z,13.38
2017-09-09T23:52:20.444Z,13.33
2017-09-09T23:54:55.239Z,13.32
2017-09-09T23:57:30.548Z,13.26
